createdAt,value
2018-06-23T00:00:50.444Z,11.15
2018-06-23T00:03:18.495Z,6.30
2018-06-23T00:05:46.541Z,7.47
2018-06-23T00:08:14.595Z,10.98
2018-06-23T00:10:42.657Z,8.73
2018-06-23T00:13:10.693Z,11.10
2018-06-23T00:15:38.736Z,7.60
2018-06-23T00:18:06.784Z,9.90
2018-06-23T00:20:34.828Z,6.75
2018-06-23T00:23:02.884Z,11.93
2018-06-23T00:25:36.261Z,7.67
2018-06-23T00:28:04.185Z,10.98
2018-06-23T00:30:32.236Z,10.70
2018-06-23T00:33:00.277Z,4.85
2018-06-23T00:35:28.317Z,10.05
2018-06-23T00:37:56.369Z,7.35
2018-06-23T00:40:24.416Z,7.60
2018-06-23T00:42:52.453Z,12.07
2018-06-23T00:45:20.505Z,8.28
2018-06-23T00:47:48.537Z,6.60
2018-06-23T00:50:16.816Z,9.68
2018-06-23T00:52:44.861Z,9.95
2018-06-23T00:55:12.901Z,5.50
2018-06-23T00:57:40.944Z,8.83
2018-06-23T01:00:08.984Z,16.12
2018-06-23T01:02:37.024Z,8.03
2018-06-23T01:05:05.201Z,16.00
2018-06-23T01:07:33.237Z,7.12
2018-06-23T01:10:01.284Z,12.68
2018-06-23T01:12:29.336Z,11.93
2018-06-23T01:14:57.376Z,13.90
2018-06-23T01:17:25.432Z,13.20
2018-06-23T01:19:53.469Z,10.35
2018-06-23T01:22:21.521Z,11.88
2018-06-23T01:24:49.649Z,6.83
2018-06-23T01:27:17.698Z,9.38
2018-06-23T01:29:45.741Z,10.10
2018-06-23T01:32:13.787Z,10.53
2018-06-23T01:34:41.838Z,15.78
2018-06-23T01:37:09.889Z,10.45
2018-06-23T01:39:37.920Z,8.38
2018-06-23T01:42:06.094Z,11.03
2018-06-23T01:44:34.132Z,10.80
2018-06-23T01:47:02.181Z,8.48
2018-06-23T01:49:30.224Z,17.48
2018-06-23T01:51:58.260Z,9.85
2018-06-23T01:54:26.305Z,11.45
2018-06-23T01:56:54.363Z,9.08
2018-06-23T01:59:22.413Z,11.48
2018-06-23T02:01:50.453Z,10.15
2018-06-23T02:04:18.501Z,20.75
2018-06-23T02:06:46.540Z,13.00
2018-06-23T02:09:14.603Z,12.75
2018-06-23T02:11:42.640Z,14.45
2018-06-23T02:14:16.165Z,19.00
2018-06-23T02:16:49.624Z,13.20
2018-06-23T02:19:23.052Z,14.55
2018-06-23T02:21:56.521Z,16.00
2018-06-23T02:24:30.013Z,20.57
2018-06-23T02:27:03.569Z,13.30
2018-06-23T02:29:36.917Z,23.42
2018-06-23T02:32:10.377Z,10.93
2018-06-23T02:34:43.968Z,6.65
2018-06-23T02:37:12.061Z,10.53
2018-06-23T02:39:40.133Z,10.13
2018-06-23T02:42:08.197Z,13.08
2018-06-23T02:44:36.265Z,7.20
2018-06-23T02:47:04.404Z,12.82
2018-06-23T02:49:32.473Z,15.58
2018-06-23T02:52:00.534Z,14.68
2018-06-23T02:54:28.592Z,8.58
2018-06-23T02:56:56.641Z,21.93
2018-06-23T02:59:24.693Z,13.70
2018-06-23T03:01:52.755Z,17.42
2018-06-23T03:04:20.804Z,15.23
2018-06-23T03:06:48.850Z,16.95
2018-06-23T03:09:16.897Z,12.88
2018-06-23T03:11:44.949Z,12.65
2018-06-23T03:14:12.988Z,9.90
2018-06-23T03:16:41.025Z,9.75
2018-06-23T03:19:09.089Z,7.03
2018-06-23T03:21:37.141Z,10.50
2018-06-23T03:24:05.208Z,8.45
2018-06-23T03:26:33.284Z,17.55
2018-06-23T03:29:01.340Z,13.43
2018-06-23T03:31:29.389Z,14.85
2018-06-23T03:33:57.424Z,16.07
2018-06-23T03:36:25.468Z,8.73
2018-06-23T03:38:53.514Z,13.85
2018-06-23T03:41:21.557Z,10.82
2018-06-23T03:43:49.668Z,11.90
2018-06-23T03:46:17.653Z,15.88
2018-06-23T03:48:45.992Z,12.47
2018-06-23T03:51:14.040Z,11.33
2018-06-23T03:53:42.077Z,10.90
2018-06-23T03:56:10.154Z,15.10
2018-06-23T03:58:38.193Z,13.48
2018-06-23T04:01:07.605Z,15.38
2018-06-23T04:03:35.988Z,27.10
2018-06-23T04:06:04.061Z,18.30
2018-06-23T04:08:32.568Z,23.05
2018-06-23T04:11:00.613Z,14.60
2018-06-23T04:13:28.648Z,15.83
2018-06-23T04:15:56.736Z,16.75
2018-06-23T04:18:24.764Z,24.40
2018-06-23T04:20:52.816Z,18.82
2018-06-23T04:23:20.874Z,15.63
2018-06-23T04:25:48.925Z,13.30
2018-06-23T04:28:16.964Z,16.07
2018-06-23T04:30:45.037Z,21.85
2018-06-23T04:33:13.080Z,16.37
2018-06-23T04:35:41.129Z,26.73
2018-06-23T04:38:09.227Z,14.25
2018-06-23T04:40:37.280Z,24.43
2018-06-23T04:43:05.344Z,20.08
2018-06-23T04:45:33.424Z,21.50
2018-06-23T04:48:01.498Z,18.00
2018-06-23T04:50:29.812Z,29.40
2018-06-23T04:52:57.916Z,21.00
2018-06-23T04:55:25.972Z,19.67
2018-06-23T04:57:54.153Z,33.25
2018-06-23T05:00:25.955Z,20.90
2018-06-23T05:02:55.158Z,26.82
2018-06-23T05:05:23.541Z,24.90
2018-06-23T05:07:51.606Z,26.82
2018-06-23T05:10:19.664Z,19.37
2018-06-23T05:12:47.745Z,18.27
2018-06-23T05:15:15.804Z,21.25
2018-06-23T05:17:43.905Z,19.77
2018-06-23T05:20:12.021Z,21.60
2018-06-23T05:22:40.277Z,23.07
2018-06-23T05:25:08.341Z,24.05
2018-06-23T05:27:36.437Z,20.10
2018-06-23T05:30:04.788Z,18.73
2018-06-23T05:32:32.873Z,27.07
2018-06-23T05:35:01.064Z,23.98
2018-06-23T05:37:29.141Z,34.83
2018-06-23T05:39:57.237Z,16.90
2018-06-23T05:42:25.305Z,23.07
2018-06-23T05:44:53.397Z,21.48
2018-06-23T05:47:21.684Z,20.72
2018-06-23T05:49:50.113Z,25.27
2018-06-23T05:52:18.198Z,18.90
2018-06-23T05:54:46.260Z,27.98
2018-06-23T05:57:14.355Z,25.97
2018-06-23T05:59:42.909Z,24.18
2018-06-23T06:02:11.553Z,21.68
2018-06-23T06:04:39.638Z,24.82
2018-06-23T06:07:07.740Z,21.17
2018-06-23T06:09:35.764Z,24.40
2018-06-23T06:12:04.005Z,17.17
2018-06-23T06:14:32.169Z,27.70
2018-06-23T06:17:38.450Z,30.90
2018-06-23T06:20:09.917Z,27.30
2018-06-23T06:22:39.228Z,20.88
2018-06-23T06:25:07.933Z,26.07
2018-06-23T06:27:36.216Z,20.17
2018-06-23T06:30:05.484Z,20.48
2018-06-23T06:32:33.552Z,26.40
2018-06-23T06:35:01.637Z,22.05
2018-06-23T06:37:29.708Z,17.57
2018-06-23T06:39:57.769Z,22.32
2018-06-23T06:42:25.825Z,26.17
2018-06-23T06:44:53.893Z,13.90
2018-06-23T06:47:21.961Z,22.13
2018-06-23T06:49:50.021Z,21.02
2018-06-23T06:52:18.081Z,15.08
2018-06-23T06:54:46.948Z,19.20
2018-06-23T06:57:15.079Z,19.60
2018-06-23T06:59:43.077Z,19.87
2018-06-23T07:02:11.145Z,17.15
2018-06-23T07:04:39.204Z,20.02
2018-06-23T07:07:07.272Z,26.95
2018-06-23T07:09:35.338Z,13.98
2018-06-23T07:12:03.409Z,18.65
2018-06-23T07:14:31.472Z,22.50
2018-06-23T07:16:59.521Z,17.95
2018-06-23T07:19:27.575Z,16.00
2018-06-23T07:21:55.636Z,11.88
2018-06-23T07:24:23.695Z,12.98
2018-06-23T07:26:51.799Z,15.75
2018-06-23T07:29:19.816Z,16.20
2018-06-23T07:31:47.897Z,17.50
2018-06-23T07:34:15.994Z,15.95
2018-06-23T07:36:44.013Z,15.32
2018-06-23T07:39:12.218Z,18.23
2018-06-23T07:41:40.249Z,13.05
2018-06-23T07:44:09.007Z,22.60
2018-06-23T07:46:37.102Z,11.55
2018-06-23T07:49:05.268Z,18.32
2018-06-23T07:51:33.553Z,12.58
2018-06-23T07:54:01.609Z,17.52
2018-06-23T07:56:29.645Z,17.00
2018-06-23T07:58:57.701Z,20.62
2018-06-23T08:01:25.748Z,16.42
2018-06-23T08:03:54.188Z,13.40
2018-06-23T08:06:22.228Z,8.65
2018-06-23T08:08:50.268Z,17.67
2018-06-23T08:11:18.309Z,19.40
2018-06-23T08:13:46.347Z,9.65
2018-06-23T08:16:14.389Z,18.73
2018-06-23T08:18:42.433Z,8.65
2018-06-23T08:21:10.473Z,17.00
2018-06-23T08:23:38.537Z,11.35
2018-06-23T08:26:06.601Z,9.23
2018-06-23T08:28:34.925Z,11.30
2018-06-23T08:31:03.328Z,13.90
2018-06-23T08:33:31.372Z,20.48
2018-06-23T08:35:59.421Z,13.45
2018-06-23T08:38:27.468Z,14.47
2018-06-23T08:40:55.521Z,10.95
2018-06-23T08:43:23.556Z,14.98
2018-06-23T08:45:51.609Z,10.28
2018-06-23T08:48:19.701Z,20.65
2018-06-23T08:50:47.752Z,15.95
2018-06-23T08:53:16.090Z,15.65
2018-06-23T08:55:44.141Z,9.48
2018-06-23T08:58:12.176Z,5.85
2018-06-23T09:00:40.230Z,11.50
2018-06-23T09:03:08.269Z,12.75
2018-06-23T09:05:36.349Z,6.70
2018-06-23T09:08:04.388Z,9.75
2018-06-23T09:10:32.440Z,5.22
2018-06-23T09:13:00.484Z,10.48
2018-06-23T09:15:28.518Z,8.33
2018-06-23T09:17:56.560Z,9.60
2018-06-23T09:20:24.608Z,11.12
2018-06-23T09:22:52.648Z,14.63
2018-06-23T09:25:20.708Z,16.73
2018-06-23T09:27:48.734Z,8.03
2018-06-23T09:30:16.788Z,11.70
2018-06-23T09:32:44.825Z,10.30
2018-06-23T09:35:12.869Z,7.17
2018-06-23T09:37:40.949Z,10.08
2018-06-23T09:40:08.997Z,7.47
2018-06-23T09:42:37.065Z,8.05
2018-06-23T09:45:05.137Z,13.08
2018-06-23T09:47:33.200Z,9.50
2018-06-23T09:50:01.265Z,11.03
2018-06-23T09:52:29.336Z,10.08
2018-06-23T09:54:57.566Z,11.75
2018-06-23T09:57:25.629Z,11.85
2018-06-23T09:59:53.681Z,10.40
2018-06-23T10:02:21.797Z,19.98
2018-06-23T10:04:49.808Z,6.22
2018-06-23T10:07:17.917Z,9.68
2018-06-23T10:09:45.933Z,8.28
2018-06-23T10:12:14.180Z,13.28
2018-06-23T10:14:42.242Z,8.78
2018-06-23T10:17:10.306Z,7.35
2018-06-23T10:19:38.357Z,10.13
2018-06-23T10:22:06.424Z,7.00
2018-06-23T10:24:34.500Z,6.05
2018-06-23T10:27:02.546Z,8.45
2018-06-23T10:29:30.596Z,6.08
2018-06-23T10:31:58.665Z,7.20
2018-06-23T10:34:26.729Z,5.30
2018-06-23T10:36:54.804Z,8.20
2018-06-23T10:39:22.840Z,8.58
2018-06-23T10:41:50.876Z,6.85
2018-06-23T10:44:18.920Z,12.15
2018-06-23T10:46:46.973Z,11.25
2018-06-23T10:49:15.046Z,10.45
2018-06-23T10:51:43.096Z,13.65
2018-06-23T10:54:11.134Z,9.15
2018-06-23T10:56:39.196Z,17.98
2018-06-23T10:59:07.234Z,8.95
2018-06-23T11:01:35.270Z,7.58
2018-06-23T11:04:03.321Z,8.65
2018-06-23T11:06:31.364Z,11.03
2018-06-23T11:08:59.410Z,10.15
2018-06-23T11:11:27.448Z,9.60
2018-06-23T11:13:55.488Z,9.23
2018-06-23T11:16:23.516Z,8.88
2018-06-23T11:18:51.556Z,8.18
2018-06-23T11:21:19.606Z,9.68
2018-06-23T11:23:47.700Z,10.18
2018-06-23T11:26:15.740Z,14.63
2018-06-23T11:28:43.784Z,6.70
2018-06-23T11:31:11.833Z,13.50
2018-06-23T11:33:39.879Z,8.43
2018-06-23T11:36:07.927Z,7.33
2018-06-23T11:38:35.972Z,9.08
2018-06-23T11:41:04.017Z,7.72
2018-06-23T11:43:32.157Z,9.55
2018-06-23T11:46:00.188Z,5.35
2018-06-23T11:48:28.240Z,7.80
2018-06-23T11:50:56.276Z,6.17
2018-06-23T11:53:24.345Z,7.25
2018-06-23T11:55:52.385Z,9.80
2018-06-23T11:58:20.432Z,7.55
2018-06-23T12:00:48.469Z,9.15
2018-06-23T12:03:16.567Z,4.65
2018-06-23T12:05:44.572Z,8.55
2018-06-23T12:08:12.612Z,8.18
2018-06-23T12:10:40.661Z,10.23
2018-06-23T12:13:08.704Z,7.75
2018-06-23T12:15:36.757Z,5.70
2018-06-23T12:18:04.792Z,6.58
2018-06-23T12:20:32.848Z,6.80
2018-06-23T12:23:00.884Z,5.15
2018-06-23T12:25:28.933Z,10.08
2018-06-23T12:27:57.010Z,3.08
2018-06-23T12:30:25.120Z,5.03
2018-06-23T12:32:53.089Z,5.00
2018-06-23T12:35:21.145Z,7.85
2018-06-23T12:37:49.192Z,8.45
2018-06-23T12:40:17.237Z,8.80
2018-06-23T12:42:45.289Z,7.30
2018-06-23T12:45:13.324Z,4.78
2018-06-23T12:47:41.364Z,13.28
2018-06-23T12:50:09.442Z,8.43
2018-06-23T12:52:37.461Z,5.70
2018-06-23T12:55:05.497Z,5.05
2018-06-23T12:57:33.597Z,6.10
2018-06-23T13:00:01.649Z,11.60
2018-06-23T13:02:29.699Z,8.00
2018-06-23T13:04:57.763Z,10.68
2018-06-23T13:07:25.797Z,12.10
2018-06-23T13:09:53.849Z,4.92
2018-06-23T13:12:21.901Z,5.67
2018-06-23T13:14:49.933Z,8.18
2018-06-23T13:17:18.068Z,8.30
2018-06-23T13:19:46.108Z,8.98
2018-06-23T13:22:14.185Z,12.20
2018-06-23T13:24:42.216Z,10.45
2018-06-23T13:27:10.301Z,7.95
2018-06-23T13:29:38.344Z,5.90
2018-06-23T13:32:06.431Z,6.15
2018-06-23T13:34:34.495Z,6.85
2018-06-23T13:37:03.064Z,9.63
2018-06-23T13:39:31.211Z,5.70
2018-06-23T13:41:59.245Z,5.22
2018-06-23T13:44:27.313Z,9.30
2018-06-23T13:46:55.372Z,5.08
2018-06-23T13:49:23.469Z,4.17
2018-06-23T13:51:51.538Z,6.10
2018-06-23T13:54:19.609Z,3.98
2018-06-23T13:56:47.668Z,7.30
2018-06-23T13:59:15.737Z,7.28
2018-06-23T14:01:43.821Z,9.45
2018-06-23T14:04:11.899Z,4.45
2018-06-23T14:06:39.971Z,5.37
2018-06-23T14:09:09.397Z,8.10
2018-06-23T14:11:37.526Z,10.78
2018-06-23T14:14:05.616Z,10.93
2018-06-23T14:16:33.837Z,7.70
2018-06-23T14:19:01.908Z,6.95
2018-06-23T14:21:29.985Z,5.67
2018-06-23T14:23:58.104Z,11.93
2018-06-23T14:26:26.173Z,15.20
2018-06-23T14:28:54.289Z,9.18
2018-06-23T14:31:22.434Z,5.55
2018-06-23T14:33:50.433Z,6.30
2018-06-23T14:36:18.492Z,8.88
2018-06-23T14:38:46.540Z,7.05
2018-06-23T14:41:14.786Z,6.22
2018-06-23T14:43:42.886Z,5.80
2018-06-23T14:46:10.953Z,9.15
2018-06-23T14:48:38.993Z,8.30
2018-06-23T14:51:07.061Z,10.15
2018-06-23T14:53:35.095Z,5.80
2018-06-23T14:56:03.148Z,7.65
2018-06-23T14:58:31.187Z,4.37
2018-06-23T15:00:59.248Z,12.07
2018-06-23T15:03:27.308Z,8.53
2018-06-23T15:05:55.256Z,6.53
2018-06-23T15:08:34.870Z,10.25
2018-06-23T15:11:14.452Z,7.60
2018-06-23T15:13:42.488Z,4.97
2018-06-23T15:16:10.548Z,7.05
2018-06-23T15:18:38.608Z,9.10
2018-06-23T15:21:06.654Z,8.48
2018-06-23T15:23:34.720Z,9.60
2018-06-23T15:26:02.768Z,10.90
2018-06-23T15:28:30.804Z,6.35
2018-06-23T15:30:58.844Z,13.45
2018-06-23T15:33:26.885Z,9.75
2018-06-23T15:35:54.937Z,9.43
2018-06-23T15:38:23.345Z,10.23
2018-06-23T15:40:51.401Z,12.13
2018-06-23T15:43:19.429Z,7.17
2018-06-23T15:45:47.480Z,9.40
2018-06-23T15:48:15.521Z,10.55
2018-06-23T15:50:43.573Z,10.78
2018-06-23T15:53:11.613Z,8.20
2018-06-23T15:55:39.776Z,12.45
2018-06-23T15:58:07.825Z,10.03
2018-06-23T16:00:35.877Z,11.45
2018-06-23T16:03:03.912Z,12.98
2018-06-23T16:05:31.952Z,10.08
2018-06-23T16:08:00.000Z,13.18
2018-06-23T16:10:28.041Z,9.30
2018-06-23T16:12:56.088Z,6.78
2018-06-23T16:15:24.140Z,8.70
2018-06-23T16:17:52.217Z,16.90
2018-06-23T16:20:20.313Z,8.08
2018-06-23T16:22:48.605Z,17.20
2018-06-23T16:25:18.290Z,12.73
2018-06-23T16:27:46.332Z,5.20
2018-06-23T16:30:14.765Z,7.62
2018-06-23T16:32:42.814Z,7.37
2018-06-23T16:35:11.155Z,14.53
2018-06-23T16:37:38.949Z,12.60
2018-06-23T16:40:07.045Z,5.62
2018-06-23T16:42:35.117Z,7.20
2018-06-23T16:45:03.185Z,5.78
2018-06-23T16:47:31.258Z,7.95
2018-06-23T16:49:59.314Z,6.03
2018-06-23T16:52:27.414Z,10.90
2018-06-23T16:54:55.456Z,6.35
2018-06-23T16:57:23.525Z,11.60
2018-06-23T16:59:51.584Z,7.45
2018-06-23T17:02:19.660Z,5.80
2018-06-23T17:04:47.721Z,7.12
2018-06-23T17:07:15.822Z,8.08
2018-06-23T17:09:44.090Z,8.48
2018-06-23T17:12:12.354Z,5.95
2018-06-23T17:14:40.452Z,6.35
2018-06-23T17:17:08.615Z,5.05
2018-06-23T17:19:36.770Z,8.53
2018-06-23T17:22:04.753Z,4.12
2018-06-23T17:24:32.808Z,8.83
2018-06-23T17:27:00.909Z,5.92
2018-06-23T17:29:28.917Z,9.68
2018-06-23T17:31:56.973Z,4.35
2018-06-23T17:34:25.211Z,5.03
2018-06-23T17:36:53.418Z,4.20
2018-06-23T17:39:21.470Z,5.33
2018-06-23T17:41:49.535Z,4.10
2018-06-23T17:44:17.556Z,7.28
2018-06-23T17:46:45.601Z,12.40
2018-06-23T17:49:13.649Z,8.45
2018-06-23T17:51:41.685Z,5.85
2018-06-23T17:54:09.732Z,5.72
2018-06-23T17:56:37.773Z,11.88
2018-06-23T17:59:05.952Z,12.35
2018-06-23T18:01:34.186Z,5.83
2018-06-23T18:04:02.849Z,12.05
2018-06-23T18:06:30.944Z,5.22
2018-06-23T18:08:58.947Z,5.92
2018-06-23T18:11:27.205Z,7.85
2018-06-23T18:13:55.240Z,4.20
2018-06-23T18:16:23.284Z,5.15
2018-06-23T18:18:51.316Z,6.85
2018-06-23T18:21:19.392Z,6.80
2018-06-23T18:23:47.412Z,8.48
2018-06-23T18:26:15.453Z,7.05
2018-06-23T18:28:43.492Z,7.35
2018-06-23T18:31:11.524Z,8.30
2018-06-23T18:33:39.572Z,4.42
2018-06-23T18:36:07.629Z,8.40
2018-06-23T18:38:35.684Z,9.83
2018-06-23T18:41:03.786Z,6.70
2018-06-23T18:43:31.837Z,8.00
2018-06-23T18:45:59.896Z,11.40
2018-06-23T18:48:27.937Z,14.83
2018-06-23T18:50:56.009Z,4.97
2018-06-23T18:53:24.046Z,7.62
2018-06-23T18:55:52.104Z,4.17
2018-06-23T18:58:20.148Z,9.23
2018-06-23T19:00:48.194Z,7.05
2018-06-23T19:03:16.252Z,9.55
2018-06-23T19:05:44.385Z,6.08
2018-06-23T19:08:12.431Z,5.17
2018-06-23T19:10:40.488Z,10.50
2018-06-23T19:13:15.390Z,5.15
2018-06-23T19:15:43.431Z,4.40
2018-06-23T19:18:11.462Z,9.13
2018-06-23T19:20:39.501Z,6.33
2018-06-23T19:23:07.652Z,11.45
2018-06-23T19:25:35.704Z,11.05
2018-06-23T19:28:03.758Z,13.93
2018-06-23T19:30:31.812Z,5.35
2018-06-23T19:33:00.034Z,9.80
2018-06-23T19:35:28.216Z,6.80
2018-06-23T19:37:56.269Z,10.90
2018-06-23T19:40:24.330Z,8.03
2018-06-23T19:42:52.368Z,7.22
2018-06-23T19:45:20.441Z,7.12
2018-06-23T19:47:48.476Z,12.65
2018-06-23T19:50:16.519Z,6.92
2018-06-23T19:52:44.707Z,9.95
2018-06-23T19:55:12.748Z,12.30
2018-06-23T19:57:40.796Z,10.98
2018-06-23T20:00:08.997Z,8.55
2018-06-23T20:02:37.062Z,8.53
2018-06-23T20:05:05.136Z,10.00
2018-06-23T20:07:33.532Z,6.75
2018-06-23T20:10:01.573Z,15.68
2018-06-23T20:12:29.679Z,7.42
2018-06-23T20:14:57.500Z,11.50
2018-06-23T20:17:25.597Z,7.20
2018-06-23T20:19:53.858Z,8.78
2018-06-23T20:22:21.957Z,8.60
2018-06-23T20:24:50.018Z,11.05
2018-06-23T20:27:18.118Z,7.15
2018-06-23T20:29:46.169Z,9.93
2018-06-23T20:32:14.241Z,14.70
2018-06-23T20:34:42.298Z,7.22
2018-06-23T20:37:10.342Z,7.87
2018-06-23T20:39:38.414Z,11.05
2018-06-23T20:42:06.469Z,6.72
2018-06-23T20:44:34.536Z,7.70
2018-06-23T20:47:02.582Z,8.10
2018-06-23T20:49:30.645Z,17.92
2018-06-23T20:51:58.743Z,6.10
2018-06-23T20:54:26.827Z,8.03
2018-06-23T20:56:54.859Z,14.10
2018-06-23T20:59:22.928Z,7.90
2018-06-23T21:01:51.168Z,9.38
2018-06-23T21:04:19.208Z,8.35
2018-06-23T21:06:47.249Z,11.50
2018-06-23T21:09:15.297Z,9.93
2018-06-23T21:11:43.352Z,10.68
2018-06-23T21:14:11.405Z,6.08
2018-06-23T21:16:39.437Z,11.83
2018-06-23T21:19:07.373Z,9.05
2018-06-23T21:21:35.470Z,12.82
2018-06-23T21:24:03.496Z,11.75
2018-06-23T21:26:31.544Z,13.90
2018-06-23T21:28:59.587Z,8.23
2018-06-23T21:31:27.621Z,9.58
2018-06-23T21:33:55.673Z,10.75
2018-06-23T21:36:23.709Z,13.18
2018-06-23T21:38:51.789Z,17.42
2018-06-23T21:41:19.860Z,8.45
2018-06-23T21:43:47.913Z,9.15
2018-06-23T21:46:15.968Z,6.33
2018-06-23T21:48:44.020Z,7.12
2018-06-23T21:51:12.080Z,6.90
2018-06-23T21:53:40.137Z,5.83
2018-06-23T21:56:08.200Z,14.05
2018-06-23T21:58:36.248Z,6.28
2018-06-23T22:01:04.317Z,11.55
2018-06-23T22:03:32.364Z,6.97
2018-06-23T22:06:00.436Z,8.88
2018-06-23T22:08:28.488Z,9.75
2018-06-23T22:10:56.560Z,12.40
2018-06-23T22:13:24.615Z,7.67
2018-06-23T22:15:52.673Z,12.15
2018-06-23T22:18:20.738Z,13.20
2018-06-23T22:20:48.792Z,12.93
2018-06-23T22:23:16.852Z,15.50
2018-06-23T22:25:44.912Z,7.97
2018-06-23T22:28:12.956Z,8.70
2018-06-23T22:30:41.016Z,7.60
2018-06-23T22:33:09.152Z,11.38
2018-06-23T22:35:37.222Z,12.15
2018-06-23T22:38:05.313Z,10.82
2018-06-23T22:40:33.352Z,8.00
2018-06-23T22:43:01.393Z,9.65
2018-06-23T22:45:29.440Z,9.78
2018-06-23T22:47:57.477Z,6.65
2018-06-23T22:50:25.509Z,9.05
2018-06-23T22:52:53.561Z,7.85
2018-06-23T22:55:21.597Z,7.42
2018-06-23T22:57:49.640Z,5.30
2018-06-23T23:00:17.680Z,9.45
2018-06-23T23:02:45.720Z,10.30
2018-06-23T23:05:13.755Z,8.08
2018-06-23T23:07:41.817Z,11.05
2018-06-23T23:10:10.768Z,8.95
2018-06-23T23:12:38.974Z,11.73
2018-06-23T23:15:07.057Z,10.45
2018-06-23T23:17:35.096Z,10.05
2018-06-23T23:20:03.149Z,9.35
2018-06-23T23:22:31.506Z,7.42
2018-06-23T23:24:59.548Z,11.28
2018-06-23T23:27:27.383Z,11.22
2018-06-23T23:29:55.553Z,14.28
2018-06-23T23:32:23.605Z,11.12
2018-06-23T23:34:51.821Z,14.87
2018-06-23T23:37:20.017Z,16.17
2018-06-23T23:39:48.401Z,10.10
2018-06-23T23:42:16.449Z,11.90
2018-06-23T23:44:44.275Z,9.75
2018-06-23T23:47:12.335Z,10.08
2018-06-23T23:49:40.365Z,22.87
2018-06-23T23:52:08.437Z,13.38
2018-06-23T23:54:36.469Z,9.40
2018-06-23T23:57:04.515Z,12.35
2018-06-23T23:59:32.567Z,11.40
